createdAt,value
2023-02-19T00:01:39.524Z,3.60
2023-02-19T00:04:18.124Z,3.30
2023-02-19T00:06:46.635Z,4.37
2023-02-19T00:09:15.745Z,3.93
2023-02-19T00:11:43.543Z,2.87
2023-02-19T00:14:14.775Z,3.43
2023-02-19T00:16:41.861Z,2.40
2023-02-19T00:19:14.428Z,3.20
2023-02-19T00:21:41.666Z,3.07
2023-02-19T00:24:11.352Z,3.47
2023-02-19T00:26:42.042Z,3.40
2023-02-19T00:29:13.723Z,3.63
2023-02-19T00:31:41.132Z,3.93
2023-02-19T00:34:10.122Z,4.93
2023-02-19T00:36:39.373Z,4.20
2023-02-19T00:39:07.979Z,2.37
2023-02-19T00:41:36.140Z,3.63
2023-02-19T00:44:05.832Z,2.57
2023-02-19T00:46:34.841Z,3.00
2023-02-19T00:49:02.236Z,3.30
2023-02-19T00:51:32.131Z,2.47
2023-02-19T00:53:59.132Z,2.83
2023-02-19T00:56:26.168Z,4.07
2023-02-19T00:58:53.481Z,3.30
2023-02-19T01:01:21.476Z,2.47
2023-02-19T01:03:48.792Z,3.07
2023-02-19T01:06:17.748Z,4.07
2023-02-19T01:08:45.220Z,2.83
2023-02-19T01:11:12.943Z,3.17
2023-02-19T01:13:40.646Z,2.97
2023-02-19T01:16:21.768Z,3.47
2023-02-19T01:18:49.327Z,3.37
2023-02-19T01:21:22.289Z,2.67
2023-02-19T01:23:50.590Z,4.30
2023-02-19T01:26:20.130Z,2.47
2023-02-19T01:28:47.257Z,3.20
2023-02-19T01:31:17.718Z,3.03
2023-02-19T01:33:49.540Z,3.13
2023-02-19T01:36:17.015Z,3.10
2023-02-19T01:38:44.375Z,2.70
2023-02-19T01:41:14.099Z,3.77
2023-02-19T01:44:00.905Z,4.00
2023-02-19T01:46:39.041Z,4.10
2023-02-19T01:49:29.230Z,4.53
2023-02-19T01:52:04.689Z,3.50
2023-02-19T01:54:34.985Z,2.90
2023-02-19T01:57:06.799Z,3.33
2023-02-19T01:59:34.455Z,3.73
2023-02-19T02:02:01.942Z,3.87
2023-02-19T02:04:31.840Z,2.47
2023-02-19T02:07:01.375Z,3.27
2023-02-19T02:09:49.673Z,1.97
2023-02-19T02:12:16.622Z,2.20
2023-02-19T02:14:47.738Z,3.47
2023-02-19T02:18:02.756Z,2.63
2023-02-19T02:20:44.185Z,2.90
2023-02-19T02:23:22.642Z,2.93
2023-02-19T02:25:58.822Z,3.43
2023-02-19T02:28:44.480Z,3.30
2023-02-19T02:31:42.276Z,3.27
2023-02-19T02:34:21.078Z,6.60
2023-02-19T02:36:53.358Z,6.40
2023-02-19T02:39:24.212Z,6.73
2023-02-19T02:42:19.946Z,6.80
2023-02-19T02:45:06.859Z,6.03
2023-02-19T02:47:50.039Z,4.83
2023-02-19T02:50:24.602Z,4.70
2023-02-19T02:53:15.374Z,6.13
2023-02-19T02:55:46.384Z,4.10
2023-02-19T02:58:14.766Z,4.80
2023-02-19T03:01:03.693Z,5.07
2023-02-19T03:03:32.463Z,6.43
2023-02-19T03:06:04.794Z,5.03
2023-02-19T03:08:38.153Z,6.00
2023-02-19T03:11:40.125Z,5.40
2023-02-19T03:14:35.616Z,5.50
2023-02-19T03:17:35.007Z,6.33
2023-02-19T03:20:06.516Z,4.77
2023-02-19T03:22:36.475Z,4.87
2023-02-19T03:25:49.022Z,4.70
2023-02-19T03:28:18.679Z,5.13
2023-02-19T03:30:52.503Z,5.23
2023-02-19T03:33:27.203Z,5.47
2023-02-19T03:35:57.901Z,5.87
2023-02-19T03:38:41.292Z,4.93
2023-02-19T03:41:29.065Z,5.27
2023-02-19T03:44:18.750Z,9.53
2023-02-19T03:47:15.358Z,4.77
2023-02-19T03:49:57.249Z,5.37
2023-02-19T03:52:38.492Z,6.93
2023-02-19T03:55:26.659Z,4.47
2023-02-19T03:58:02.248Z,6.03
2023-02-19T04:00:34.474Z,5.37
2023-02-19T04:03:17.929Z,4.57
2023-02-19T04:05:52.831Z,4.97
2023-02-19T04:08:22.706Z,4.80
2023-02-19T04:10:51.537Z,4.67
2023-02-19T04:13:32.023Z,4.30
2023-02-19T04:16:09.348Z,4.43
2023-02-19T04:18:39.757Z,5.33
2023-02-19T04:21:08.996Z,6.17
2023-02-19T04:23:43.410Z,7.97
2023-02-19T04:26:11.371Z,5.17
2023-02-19T04:28:39.078Z,4.83
2023-02-19T04:31:06.298Z,5.67
2023-02-19T04:33:33.254Z,7.20
2023-02-19T04:36:00.151Z,7.93
2023-02-19T04:38:27.645Z,6.90
2023-02-19T04:40:54.497Z,7.83
2023-02-19T04:43:21.490Z,6.67
2023-02-19T04:45:48.376Z,6.40
2023-02-19T04:48:15.310Z,6.23
2023-02-19T04:50:42.226Z,6.77
2023-02-19T04:53:09.317Z,6.70
2023-02-19T04:55:39.878Z,6.53
2023-02-19T04:58:06.799Z,7.10
2023-02-19T05:00:34.216Z,8.50
2023-02-19T05:03:01.567Z,6.03
2023-02-19T05:05:28.562Z,5.87
2023-02-19T05:07:55.447Z,6.60
2023-02-19T05:10:22.298Z,5.83
2023-02-19T05:12:49.185Z,6.03
2023-02-19T05:15:16.130Z,6.73
2023-02-19T05:17:43.135Z,7.20
2023-02-19T05:20:10.231Z,5.10
2023-02-19T05:22:37.141Z,7.90
2023-02-19T05:25:05.096Z,6.27
2023-02-19T05:27:32.586Z,7.20
2023-02-19T05:29:59.547Z,7.70
2023-02-19T05:32:26.440Z,8.83
2023-02-19T05:34:53.320Z,9.10
2023-02-19T05:37:20.208Z,10.73
2023-02-19T05:39:48.138Z,8.20
2023-02-19T05:42:15.576Z,10.03
2023-02-19T05:44:42.954Z,11.40
2023-02-19T05:47:09.977Z,9.97
2023-02-19T05:49:36.912Z,11.07
2023-02-19T05:52:03.978Z,9.10
2023-02-19T05:54:31.496Z,8.17
2023-02-19T05:56:58.472Z,9.33
2023-02-19T05:59:27.004Z,8.67
2023-02-19T06:01:55.179Z,9.07
2023-02-19T06:04:22.285Z,7.63
2023-02-19T06:06:49.728Z,9.80
2023-02-19T06:09:17.134Z,8.87
2023-02-19T06:11:44.384Z,10.50
2023-02-19T06:14:13.835Z,8.50
2023-02-19T06:16:42.276Z,8.63
2023-02-19T06:19:09.285Z,8.77
2023-02-19T06:21:36.311Z,9.23
2023-02-19T06:24:08.325Z,8.07
2023-02-19T06:26:35.640Z,8.70
2023-02-19T06:29:02.660Z,8.97
2023-02-19T06:31:29.723Z,9.50
2023-02-19T06:33:56.632Z,9.93
2023-02-19T06:36:24.375Z,10.53
2023-02-19T06:38:51.671Z,8.17
2023-02-19T06:41:19.364Z,7.83
2023-02-19T06:43:46.774Z,9.87
2023-02-19T06:46:14.546Z,9.23
2023-02-19T06:48:43.681Z,9.83
2023-02-19T06:51:18.693Z,9.23
2023-02-19T06:53:46.318Z,10.00
2023-02-19T06:56:32.321Z,8.57
2023-02-19T06:59:01.308Z,7.90
2023-02-19T07:01:29.990Z,10.20
2023-02-19T07:03:56.997Z,9.00
2023-02-19T07:06:25.768Z,14.93
2023-02-19T07:08:54.687Z,10.60
2023-02-19T07:11:21.659Z,10.20
2023-02-19T07:13:48.500Z,10.87
2023-02-19T07:16:15.506Z,10.40
2023-02-19T07:18:42.425Z,10.23
2023-02-19T07:21:12.591Z,10.07
2023-02-19T07:23:40.108Z,9.53
2023-02-19T07:26:14.944Z,10.47
2023-02-19T07:28:46.475Z,11.60
2023-02-19T07:31:14.530Z,12.33
2023-02-19T07:33:44.420Z,6.90
2023-02-19T07:36:12.120Z,3.43
2023-02-19T07:38:39.108Z,2.53
2023-02-19T07:41:06.865Z,3.83
2023-02-19T07:43:35.952Z,3.20
2023-02-19T07:46:08.195Z,2.60
2023-02-19T07:48:39.615Z,3.63
2023-02-19T07:51:10.675Z,3.73
2023-02-19T07:53:37.945Z,2.23
2023-02-19T07:56:07.181Z,4.33
2023-02-19T07:58:35.143Z,2.90
2023-02-19T08:01:12.343Z,2.43
2023-02-19T08:03:39.803Z,3.13
2023-02-19T08:06:07.199Z,2.33
2023-02-19T08:08:34.079Z,3.20
2023-02-19T08:11:21.396Z,1.93
2023-02-19T08:13:50.418Z,2.90
2023-02-19T08:16:29.572Z,2.23
2023-02-19T08:19:00.506Z,1.90
2023-02-19T08:21:27.357Z,2.40
2023-02-19T08:23:54.270Z,1.80
2023-02-19T08:26:21.257Z,1.97
2023-02-19T08:28:48.988Z,1.57
2023-02-19T08:31:16.050Z,3.10
2023-02-19T08:33:43.127Z,2.67
2023-02-19T08:36:11.166Z,3.73
2023-02-19T08:38:38.487Z,3.90
2023-02-19T08:41:11.109Z,3.27
2023-02-19T08:43:38.919Z,5.17
2023-02-19T08:46:07.451Z,5.30
2023-02-19T08:48:34.452Z,3.80
2023-02-19T08:51:04.120Z,5.40
2023-02-19T08:53:35.630Z,2.70
2023-02-19T08:56:13.844Z,3.40
2023-02-19T08:58:41.198Z,3.63
2023-02-19T09:01:13.727Z,4.20
2023-02-19T09:03:41.445Z,2.47
2023-02-19T09:06:11.427Z,2.03
2023-02-19T09:08:38.504Z,2.87
2023-02-19T09:11:07.203Z,2.43
2023-02-19T09:13:34.261Z,2.40
2023-02-19T09:16:03.955Z,5.80
2023-02-19T09:18:30.999Z,4.33
2023-02-19T09:21:01.572Z,2.57
2023-02-19T09:23:28.750Z,3.33
2023-02-19T09:26:01.308Z,4.17
2023-02-19T09:28:28.571Z,1.87
2023-02-19T09:30:55.517Z,4.10
2023-02-19T09:33:22.625Z,3.27
2023-02-19T09:35:49.578Z,3.10
2023-02-19T09:38:16.490Z,1.93
2023-02-19T09:40:43.425Z,3.23
2023-02-19T09:43:18.544Z,1.87
2023-02-19T09:45:45.690Z,2.43
2023-02-19T09:48:13.161Z,3.73
2023-02-19T09:50:43.917Z,4.33
2023-02-19T09:53:20.110Z,5.40
2023-02-19T09:55:47.274Z,6.27
2023-02-19T09:58:35.606Z,6.90
2023-02-19T10:01:05.978Z,2.93
2023-02-19T10:03:39.305Z,3.23
2023-02-19T10:06:10.169Z,2.77
2023-02-19T10:08:41.396Z,3.40
2023-02-19T10:11:13.018Z,6.30
2023-02-19T10:13:57.993Z,3.90
2023-02-19T10:16:27.106Z,4.27
2023-02-19T10:18:54.054Z,6.77
2023-02-19T10:21:27.407Z,2.67
2023-02-19T10:23:59.623Z,3.93
2023-02-19T10:26:26.749Z,3.60
2023-02-19T10:28:56.794Z,3.87
2023-02-19T10:31:25.865Z,6.13
2023-02-19T10:33:57.347Z,2.93
2023-02-19T10:36:32.543Z,3.57
2023-02-19T10:39:01.658Z,3.30
2023-02-19T10:41:29.230Z,2.37
2023-02-19T10:44:13.991Z,2.13
2023-02-19T10:46:47.074Z,2.63
2023-02-19T10:49:25.393Z,1.20
2023-02-19T10:51:53.963Z,5.80
2023-02-19T10:54:33.221Z,3.73
2023-02-19T10:57:18.753Z,4.63
2023-02-19T10:59:58.313Z,2.37
2023-02-19T11:02:26.411Z,3.20
2023-02-19T11:05:03.948Z,3.43
2023-02-19T11:07:31.510Z,6.07
2023-02-19T11:09:59.758Z,5.47
2023-02-19T11:12:30.085Z,4.10
2023-02-19T11:15:17.278Z,5.90
2023-02-19T11:17:44.488Z,4.03
2023-02-19T11:20:17.722Z,8.63
2023-02-19T11:22:47.090Z,10.70
2023-02-19T11:25:14.647Z,5.80
2023-02-19T11:28:07.067Z,5.80
2023-02-19T11:30:45.087Z,6.17
2023-02-19T11:33:19.871Z,5.97
2023-02-19T11:35:48.420Z,5.53
2023-02-19T11:38:18.812Z,3.43
2023-02-19T11:41:10.690Z,2.80
2023-02-19T11:43:56.870Z,3.67
2023-02-19T11:46:55.512Z,2.57
2023-02-19T11:49:58.175Z,2.67
2023-02-19T11:52:37.004Z,3.93
2023-02-19T11:55:17.160Z,6.07
2023-02-19T11:57:55.323Z,3.50
2023-02-19T12:00:31.080Z,4.43
2023-02-19T12:03:10.015Z,3.83
2023-02-19T12:05:58.424Z,5.30
2023-02-19T12:08:47.440Z,3.10
2023-02-19T12:11:20.464Z,7.47
2023-02-19T12:13:50.220Z,8.43
2023-02-19T12:16:31.975Z,9.07
2023-02-19T12:19:15.552Z,4.67
2023-02-19T12:21:54.505Z,6.97
2023-02-19T12:24:21.417Z,5.30
2023-02-19T12:27:00.586Z,3.93
2023-02-19T12:30:06.671Z,6.53
2023-02-19T12:32:55.619Z,5.40
2023-02-19T12:35:25.319Z,6.70
2023-02-19T12:38:04.240Z,4.70
2023-02-19T12:41:01.279Z,5.70
2023-02-19T12:43:31.844Z,3.10
2023-02-19T12:46:01.571Z,2.00
2023-02-19T12:48:43.124Z,2.93
2023-02-19T12:51:32.163Z,6.17
2023-02-19T12:54:22.736Z,5.27
2023-02-19T12:57:00.336Z,3.37
2023-02-19T12:59:27.183Z,5.63
2023-02-19T13:02:06.910Z,2.93
2023-02-19T13:05:13.393Z,4.93
2023-02-19T13:08:01.836Z,4.73
2023-02-19T13:10:44.337Z,5.23
2023-02-19T13:13:18.745Z,2.57
2023-02-19T13:16:04.285Z,5.80
2023-02-19T13:18:41.960Z,4.90
2023-02-19T13:21:09.967Z,5.63
2023-02-19T13:23:59.692Z,4.23
2023-02-19T13:26:50.146Z,3.30
2023-02-19T13:29:16.978Z,6.60
2023-02-19T13:32:15.722Z,4.27
2023-02-19T13:34:51.605Z,5.37
2023-02-19T13:37:19.434Z,5.70
2023-02-19T13:39:54.609Z,7.80
2023-02-19T13:42:36.590Z,7.87
2023-02-19T13:45:05.844Z,6.10
2023-02-19T13:47:54.490Z,5.67
2023-02-19T13:50:28.312Z,6.63
2023-02-19T13:52:56.643Z,3.97
2023-02-19T13:55:52.695Z,7.17
2023-02-19T13:58:36.798Z,4.37
2023-02-19T14:01:05.018Z,3.30
2023-02-19T14:03:37.853Z,3.10
2023-02-19T14:06:09.880Z,5.93
2023-02-19T14:08:58.053Z,6.80
2023-02-19T14:11:42.994Z,6.30
2023-02-19T14:14:35.751Z,4.17
2023-02-19T14:17:37.870Z,7.90
2023-02-19T14:20:17.156Z,4.90
2023-02-19T14:22:53.194Z,9.43
2023-02-19T14:25:35.193Z,3.47
2023-02-19T14:28:05.014Z,5.50
2023-02-19T14:30:34.562Z,2.43
2023-02-19T14:33:10.657Z,4.37
2023-02-19T14:35:45.995Z,5.73
2023-02-19T14:38:24.599Z,6.33
2023-02-19T14:40:53.273Z,4.43
2023-02-19T14:43:23.716Z,6.07
2023-02-19T14:46:06.505Z,3.50
2023-02-19T14:48:45.955Z,6.73
2023-02-19T14:51:31.130Z,7.73
2023-02-19T14:53:59.707Z,6.60
2023-02-19T14:56:32.416Z,4.80
2023-02-19T14:59:11.452Z,5.20
2023-02-19T15:01:38.935Z,7.23
2023-02-19T15:04:06.890Z,4.30
2023-02-19T15:06:36.019Z,6.53
2023-02-19T15:09:07.737Z,7.97
2023-02-19T15:11:35.785Z,6.07
2023-02-19T15:14:05.726Z,5.23
2023-02-19T15:16:35.892Z,7.20
2023-02-19T15:19:07.429Z,5.07
2023-02-19T15:21:39.075Z,5.07
2023-02-19T15:24:07.199Z,6.23
2023-02-19T15:26:42.806Z,7.03
2023-02-19T15:29:15.193Z,7.23
2023-02-19T15:31:51.252Z,5.77
2023-02-19T15:34:24.644Z,8.67
2023-02-19T15:36:56.340Z,4.67
2023-02-19T15:39:25.717Z,4.23
2023-02-19T15:42:00.287Z,8.43
2023-02-19T15:44:36.057Z,7.63
2023-02-19T15:47:33.309Z,3.60
2023-02-19T15:50:07.206Z,6.93
2023-02-19T15:52:48.002Z,6.13
2023-02-19T15:55:26.966Z,5.77
2023-02-19T15:58:13.268Z,5.50
2023-02-19T16:00:51.759Z,5.10
2023-02-19T16:03:22.249Z,5.93
2023-02-19T16:06:14.173Z,7.90
2023-02-19T16:08:43.429Z,7.80
2023-02-19T16:11:22.417Z,6.33
2023-02-19T16:13:50.938Z,6.33
2023-02-19T16:16:38.356Z,5.40
2023-02-19T16:19:05.281Z,8.07
2023-02-19T16:21:32.480Z,8.57
2023-02-19T16:24:26.293Z,5.73
2023-02-19T16:26:53.779Z,5.93
2023-02-19T16:29:32.659Z,4.70
2023-02-19T16:32:05.404Z,7.70
2023-02-19T16:34:42.299Z,4.87
2023-02-19T16:37:33.761Z,7.47
2023-02-19T16:40:09.571Z,5.63
2023-02-19T16:42:56.890Z,4.67
2023-02-19T16:45:27.345Z,5.67
2023-02-19T16:47:54.386Z,5.53
2023-02-19T16:50:27.087Z,5.50
2023-02-19T16:52:59.242Z,5.63
2023-02-19T16:55:27.508Z,6.53
2023-02-19T16:57:55.153Z,3.83
2023-02-19T17:00:27.105Z,3.83
2023-02-19T17:02:58.298Z,2.97
2023-02-19T17:05:28.482Z,3.67
2023-02-19T17:07:55.475Z,5.30
2023-02-19T17:10:24.766Z,4.67
2023-02-19T17:12:54.268Z,5.07
2023-02-19T17:15:22.039Z,3.57
2023-02-19T17:17:49.634Z,5.30
2023-02-19T17:20:25.423Z,3.67
2023-02-19T17:22:52.377Z,5.77
2023-02-19T17:25:20.465Z,5.97
2023-02-19T17:27:47.750Z,8.00
2023-02-19T17:30:29.816Z,11.17
2023-02-19T17:32:57.161Z,11.57
2023-02-19T17:35:24.021Z,10.03
2023-02-19T17:37:53.263Z,9.87
2023-02-19T17:40:33.168Z,12.83
2023-02-19T17:43:01.091Z,8.77
2023-02-19T17:45:28.129Z,10.30
2023-02-19T17:47:55.152Z,5.47
2023-02-19T17:50:25.274Z,4.50
2023-02-19T17:52:52.329Z,7.10
2023-02-19T17:55:19.802Z,5.90
2023-02-19T17:57:48.092Z,5.03
2023-02-19T18:00:17.732Z,5.83
2023-02-19T18:02:44.668Z,5.17
2023-02-19T18:05:11.950Z,6.90
2023-02-19T18:07:39.075Z,6.33
2023-02-19T18:10:07.523Z,8.30
2023-02-19T18:12:34.382Z,10.73
2023-02-19T18:15:01.875Z,8.53
2023-02-19T18:17:28.984Z,8.20
2023-02-19T18:19:55.925Z,6.73
2023-02-19T18:22:22.914Z,7.43
2023-02-19T18:24:52.067Z,7.60
2023-02-19T18:27:20.786Z,4.53
2023-02-19T18:29:55.367Z,5.67
2023-02-19T18:32:24.306Z,8.87
2023-02-19T18:34:59.071Z,4.37
2023-02-19T18:37:27.709Z,7.97
2023-02-19T18:39:54.941Z,8.87
2023-02-19T18:42:22.793Z,6.67
2023-02-19T18:44:50.856Z,6.07
2023-02-19T18:47:19.021Z,4.53
2023-02-19T18:49:50.248Z,5.30
2023-02-19T18:52:22.551Z,9.50
2023-02-19T18:54:52.004Z,6.93
2023-02-19T18:57:20.349Z,7.33
2023-02-19T18:59:48.246Z,6.20
2023-02-19T19:02:15.869Z,5.50
2023-02-19T19:04:43.547Z,7.50
2023-02-19T19:07:10.901Z,9.30
2023-02-19T19:09:37.886Z,6.43
2023-02-19T19:12:05.324Z,7.40
2023-02-19T19:14:32.335Z,8.47
2023-02-19T19:17:00.363Z,6.97
2023-02-19T19:19:27.438Z,6.20
2023-02-19T19:21:55.411Z,7.40
2023-02-19T19:24:23.940Z,12.33
2023-02-19T19:26:52.026Z,10.90
2023-02-19T19:29:22.186Z,11.67
2023-02-19T19:31:50.383Z,15.17
2023-02-19T19:34:18.064Z,17.43
2023-02-19T19:36:45.842Z,16.13
2023-02-19T19:39:13.351Z,14.30
2023-02-19T19:41:40.687Z,11.33
2023-02-19T19:44:08.993Z,12.80
2023-02-19T19:46:36.476Z,10.83
2023-02-19T19:49:03.508Z,11.83
2023-02-19T19:51:34.557Z,8.77
2023-02-19T19:54:03.296Z,12.67
2023-02-19T19:56:31.158Z,11.87
2023-02-19T19:58:58.113Z,12.97
2023-02-19T20:01:25.147Z,13.87
2023-02-19T20:03:52.176Z,13.47
2023-02-19T20:06:31.186Z,11.73
2023-02-19T20:08:59.971Z,16.43
2023-02-19T20:11:27.579Z,11.53
2023-02-19T20:13:54.688Z,14.60
2023-02-19T20:16:26.874Z,14.40
2023-02-19T20:18:53.915Z,16.10
2023-02-19T20:21:20.859Z,10.27
2023-02-19T20:23:47.915Z,11.93
2023-02-19T20:26:25.876Z,10.33
2023-02-19T20:28:53.836Z,12.10
2023-02-19T20:31:21.125Z,10.90
2023-02-19T20:33:50.297Z,11.53
2023-02-19T20:36:18.227Z,13.10
2023-02-19T20:38:45.159Z,15.93
2023-02-19T20:41:13.119Z,11.13
2023-02-19T20:43:40.803Z,15.03
2023-02-19T20:46:07.923Z,11.63
2023-02-19T20:48:35.068Z,13.77
2023-02-19T20:51:02.156Z,14.10
2023-02-19T20:53:30.164Z,13.77
2023-02-19T20:55:57.604Z,14.37
2023-02-19T20:58:25.321Z,13.20
2023-02-19T21:00:54.385Z,15.10
2023-02-19T21:03:21.768Z,13.17
2023-02-19T21:05:48.970Z,14.43
2023-02-19T21:08:17.420Z,13.13
2023-02-19T21:10:46.332Z,14.87
2023-02-19T21:13:14.035Z,12.60
2023-02-19T21:15:41.279Z,14.53
2023-02-19T21:18:08.486Z,12.20
2023-02-19T21:20:35.508Z,11.43
2023-02-19T21:23:03.658Z,13.67
2023-02-19T21:25:33.209Z,11.27
2023-02-19T21:28:00.397Z,12.53
2023-02-19T21:30:27.430Z,12.93
2023-02-19T21:32:54.395Z,14.33
2023-02-19T21:35:23.691Z,11.27
2023-02-19T21:37:50.896Z,11.40
2023-02-19T21:40:17.891Z,10.90
2023-02-19T21:42:49.187Z,13.60
2023-02-19T21:45:19.112Z,11.60
2023-02-19T21:47:46.039Z,14.77
2023-02-19T21:50:13.099Z,15.70
2023-02-19T21:52:40.073Z,11.57
2023-02-19T21:55:07.077Z,13.37
2023-02-19T21:57:35.573Z,15.00
2023-02-19T22:00:03.380Z,14.90
2023-02-19T22:02:30.286Z,14.37
2023-02-19T22:04:57.821Z,10.20
2023-02-19T22:07:25.330Z,12.37
2023-02-19T22:09:52.657Z,13.80
2023-02-19T22:12:20.385Z,11.57
2023-02-19T22:14:47.339Z,10.50
2023-02-19T22:17:14.563Z,11.73
2023-02-19T22:19:41.642Z,14.47
2023-02-19T22:22:08.729Z,9.00
2023-02-19T22:24:35.721Z,10.03
2023-02-19T22:27:02.682Z,8.90
2023-02-19T22:29:30.090Z,8.83
2023-02-19T22:31:57.174Z,10.97
2023-02-19T22:34:24.248Z,11.00
2023-02-19T22:36:51.176Z,6.43
2023-02-19T22:39:26.505Z,7.37
2023-02-19T22:41:53.718Z,8.13
2023-02-19T22:44:20.971Z,8.33
2023-02-19T22:46:56.122Z,10.63
2023-02-19T22:49:23.779Z,9.13
2023-02-19T22:52:10.564Z,9.23
2023-02-19T22:54:38.281Z,10.03
2023-02-19T22:57:05.587Z,13.87
2023-02-19T22:59:32.611Z,9.03
2023-02-19T23:01:59.563Z,8.23
2023-02-19T23:04:26.536Z,9.87
2023-02-19T23:06:53.477Z,13.70
2023-02-19T23:09:28.273Z,8.63
2023-02-19T23:12:15.445Z,6.13
2023-02-19T23:14:42.331Z,9.67
2023-02-19T23:17:09.277Z,6.27
2023-02-19T23:19:36.823Z,8.83
2023-02-19T23:22:04.040Z,5.93
2023-02-19T23:24:31.407Z,6.93
2023-02-19T23:26:59.768Z,6.93
2023-02-19T23:29:27.892Z,5.60
2023-02-19T23:31:55.338Z,7.83
2023-02-19T23:34:22.840Z,6.57
2023-02-19T23:36:51.357Z,6.57
2023-02-19T23:39:22.794Z,5.83
2023-02-19T23:41:54.772Z,5.87
2023-02-19T23:44:23.717Z,8.60
2023-02-19T23:46:51.660Z,8.27
2023-02-19T23:49:19.223Z,10.37
2023-02-19T23:51:46.352Z,7.50
2023-02-19T23:54:13.310Z,5.77
2023-02-19T23:56:40.252Z,8.10
2023-02-19T23:59:07.109Z,11.27
